Time;durP1;ratioP1;P1;durP2;ratioP2;P2;SDS_P1;SDS_P2;PMS_P1;PMS_P2;Temp;Humidity;BMP_temperature;BMP_pressure;BME280_temperature;BME280_humidity;BME280_pressure;Samples;Min_cycle;Max_cycle;Signal;HPM_P1;HPM_P2
2022/08/09 00:00:44;;;;;;;2.35;1.42;;;;;;;18.08;71.65;102847.66;5037378;28;20276;-75
2022/08/09 00:03:09;;;;;;;2.85;1.85;;;;;;;18.07;71.62;102851.25;5038114;28;20396;-75
2022/08/09 00:05:35;;;;;;;2.17;1.70;;;;;;;18.05;71.66;102839.88;5038448;28;20052;-75
2022/08/09 00:08:00;;;;;;;1.98;1.77;;;;;;;18.04;71.52;102846.94;5040672;28;20217;-75
2022/08/09 00:10:25;;;;;;;1.63;1.40;;;;;;;18.03;71.82;102855.84;5040302;28;20037;-75
2022/08/09 00:12:51;;;;;;;3.97;1.67;;;;;;;18.02;72.02;102846.13;5040618;28;20100;-75
2022/08/09 00:15:16;;;;;;;2.65;1.63;;;;;;;18.00;72.02;102845.34;5041431;28;20105;-75
2022/08/09 00:17:42;;;;;;;2.45;1.70;;;;;;;17.99;72.03;102844.47;5041287;28;20041;-75
2022/08/09 00:20:08;;;;;;;1.98;1.70;;;;;;;17.96;72.29;102835.78;5040100;28;20248;-75
2022/08/09 00:22:34;;;;;;;2.72;1.95;;;;;;;17.95;72.30;102842.84;5023627;28;20037;-75
2022/08/09 00:24:59;;;;;;;2.08;1.75;;;;;;;17.94;72.54;102846.44;5041492;28;20029;-75
2022/08/09 00:27:24;;;;;;;3.00;1.40;;;;;;;17.94;72.36;102842.94;5023566;28;20029;-75
2022/08/09 00:29:50;;;;;;;2.25;1.85;;;;;;;17.92;72.48;102839.47;5039886;28;20337;-75
2022/08/09 00:32:16;;;;;;;3.22;2.00;;;;;;;17.92;72.49;102842.13;5039995;28;20041;-75
2022/08/09 00:34:42;;;;;;;2.15;1.95;;;;;;;17.90;72.58;102836.00;5040736;28;20041;-75
2022/08/09 00:37:07;;;;;;;2.55;1.60;;;;;;;17.89;72.66;102837.81;5040166;28;20131;-75
2022/08/09 00:39:33;;;;;;;1.92;1.73;;;;;;;17.87;72.81;102842.31;5040536;28;20040;-75
2022/08/09 00:41:58;;;;;;;2.05;1.90;;;;;;;17.86;72.77;102835.28;5041690;28;20309;-75
2022/08/09 00:44:24;;;;;;;4.18;2.20;;;;;;;17.86;72.90;102842.38;5023464;28;20104;-75
2022/08/09 00:46:49;;;;;;;2.08;1.70;;;;;;;17.84;72.70;102843.28;5039863;28;20036;-75
2022/08/09 00:49:15;;;;;;;1.85;1.75;;;;;;;17.83;72.75;102838.88;5041497;28;20036;-75
2022/08/09 00:51:40;;;;;;;2.30;1.95;;;;;;;17.81;72.94;102840.75;5040866;28;20109;-75
2022/08/09 00:54:06;;;;;;;1.67;1.58;;;;;;;17.81;73.04;102837.25;5023559;28;20099;-75
2022/08/09 00:56:31;;;;;;;2.88;1.88;;;;;;;17.80;72.99;102840.78;5040881;28;20051;-75
2022/08/09 00:58:57;;;;;;;3.97;1.88;;;;;;;17.79;73.06;102836.41;5040979;28;20100;-75
2022/08/09 01:04:56;;;;;;;3.95;1.50;;;;;;;17.77;73.48;102848.84;5039423;28;20040;-75
2022/08/09 01:07:32;;;;;;;6.57;1.90;;;;;;;17.73;73.82;102839.31;5042695;28;20041;-75
2022/08/09 01:10:07;;;;;;;2.90;1.80;;;;;;;17.71;73.90;102842.00;5041059;28;20097;-75
2022/08/09 01:12:46;;;;;;;3.50;1.95;;;;;;;17.71;73.41;102843.81;5042027;28;20033;-75
2022/08/09 01:15:24;;;;;;;2.17;1.98;;;;;;;17.69;73.90;102838.56;5043269;28;20029;-75
2022/08/09 01:18:23;;;;;;;1.73;1.63;;;;;;;17.69;73.88;102840.38;5044327;28;20026;-75
2022/08/09 01:21:13;;;;;;;2.55;2.10;;;;;;;17.67;73.66;102843.06;5044764;28;20036;-75
2022/08/09 01:24:06;;;;;;;2.97;2.08;;;;;;;17.65;74.04;102847.56;5043897;28;20033;-75
2022/08/09 01:26:53;;;;;;;5.30;2.08;;;;;;;17.61;74.55;102848.63;5044280;28;20033;-75
2022/08/09 01:29:27;;;;;;;2.03;1.80;;;;;;;17.59;74.34;102846.03;5043925;28;20087;-75
2022/08/09 01:31:57;;;;;;;2.50;2.10;;;;;;;17.58;74.00;102848.72;5044180;28;20037;-75
2022/08/09 01:34:25;;;;;;;2.50;2.03;;;;;;;17.57;74.62;102850.53;5044034;28;20056;-75
2022/08/09 01:36:53;;;;;;;3.80;2.23;;;;;;;17.56;74.30;102845.28;5044421;28;20107;-74
2022/08/09 01:39:21;;;;;;;3.17;2.08;;;;;;;17.56;74.45;102842.63;5043774;28;20037;-74
2022/08/09 01:41:47;;;;;;;2.53;2.10;;;;;;;17.55;74.43;102843.53;5042840;28;20018;-74
2022/08/09 01:44:15;;;;;;;3.70;2.17;;;;;;;17.55;74.21;102847.03;5043654;28;20235;-75
2022/08/09 01:46:44;;;;;;;2.47;2.00;;;;;;;17.55;74.21;102854.13;5043433;28;20029;-75
2022/08/09 01:49:15;;;;;;;2.97;2.03;;;;;;;17.54;73.82;102844.47;5043926;28;20276;-75
2022/08/09 01:51:44;;;;;;;2.80;2.10;;;;;;;17.53;74.31;102842.72;5043515;28;20265;-75
2022/08/09 01:54:12;;;;;;;2.58;2.38;;;;;;;17.51;74.03;102842.78;5043727;28;20170;-74
2022/08/09 01:56:41;;;;;;;2.17;1.98;;;;;;;17.51;73.98;102842.78;5042447;28;20040;-75
2022/08/09 01:59:08;;;;;;;;;;;;;;;17.49;73.99;102842.00;5044263;28;20143;-75
2022/08/09 02:01:35;;;;;;;4.07;2.40;;;;;;;17.50;74.10;102845.50;5043322;28;19912;-75
2022/08/09 02:04:03;;;;;;;4.30;1.90;;;;;;;17.47;73.77;102841.19;5043688;28;20067;-75
2022/08/09 02:09:18;;;;;;;3.13;2.20;;;;;;;17.44;73.69;102846.59;5042901;28;20072;-74
2022/08/09 02:11:43;;;;;;;1.70;1.60;;;;;;;17.42;73.72;102856.38;5043061;28;20063;-75
2022/08/09 02:14:10;;;;;;;3.17;2.00;;;;;;;17.40;73.99;102852.94;5043376;28;20029;-75
2022/08/09 02:16:37;;;;;;;3.70;1.83;;;;;;;17.37;73.81;102853.91;5043114;28;20056;-74
2022/08/09 02:19:03;;;;;;;2.10;1.80;;;;;;;17.35;73.75;102853.09;5041962;28;20057;-74
2022/08/09 02:21:40;;;;;;;2.00;1.80;;;;;;;17.34;73.79;102850.53;5042889;28;20029;-75
2022/08/09 02:24:09;;;;;;;2.30;1.77;;;;;;;17.32;73.61;102849.69;5041041;28;20144;-75
2022/08/09 02:26:37;;;;;;;2.08;1.90;;;;;;;17.31;73.53;102853.28;5042699;28;20025;-75
2022/08/09 02:29:13;;;;;;;2.55;2.13;;;;;;;17.27;73.62;102841.94;5043241;28;20099;-75
2022/08/09 02:31:43;;;;;;;2.00;1.90;;;;;;;17.26;73.77;102837.53;5041290;28;20031;-74
2022/08/09 02:34:19;;;;;;;2.25;2.05;;;;;;;17.26;73.66;102842.84;5043289;28;20352;-74
2022/08/09 02:36:51;;;;;;;2.20;2.00;;;;;;;17.22;73.53;102836.78;5043137;28;20083;-74
2022/08/09 02:39:26;;;;;;;2.30;2.10;;;;;;;17.21;73.50;102834.22;5042829;28;20040;-74
2022/08/09 02:42:00;;;;;;;2.30;2.10;;;;;;;17.19;73.44;102834.28;5042675;28;20268;-74
2022/08/09 02:44:33;;;;;;;2.58;2.17;;;;;;;17.17;73.72;102838.78;5042275;28;20029;-74
2022/08/09 02:47:04;;;;;;;2.30;2.10;;;;;;;17.17;73.57;102830.84;5042892;28;20251;-75
2022/08/09 02:49:32;;;;;;;2.35;2.15;;;;;;;17.15;73.56;102839.72;5036498;28;20088;-75
2022/08/09 02:51:59;;;;;;;2.40;2.00;;;;;;;17.13;73.84;102837.13;5036725;28;20067;-75
2022/08/09 02:54:26;;;;;;;3.95;2.03;;;;;;;17.12;73.71;102823.94;5036483;28;20108;-75
2022/08/09 02:56:53;;;;;;;2.60;2.40;;;;;;;17.10;73.83;102826.69;5035176;28;20041;-75
2022/08/09 02:59:21;;;;;;;2.53;2.33;;;;;;;17.09;74.07;102830.22;5035996;28;20041;-75
2022/08/09 03:01:48;;;;;;;2.42;2.22;;;;;;;17.08;74.26;102821.44;5036588;28;20033;-75
2022/08/09 03:04:14;;;;;;;2.28;2.10;;;;;;;17.06;74.12;102807.41;5036135;28;20057;-75
2022/08/09 03:06:41;;;;;;;3.15;2.30;;;;;;;17.05;73.98;102810.94;5035178;28;20096;-75
2022/08/09 03:09:08;;;;;;;4.70;2.47;;;;;;;17.04;73.86;102814.50;5036371;28;20033;-75
2022/08/09 03:11:34;;;;;;;3.40;2.33;;;;;;;17.04;74.27;102822.44;5036125;28;20044;-75
2022/08/09 03:14:00;;;;;;;3.30;2.50;;;;;;;17.02;74.14;102819.00;5036998;28;20276;-75
2022/08/09 03:16:27;;;;;;;3.33;2.63;;;;;;;17.01;74.42;102817.28;5035709;28;20469;-75
2022/08/09 03:18:54;;;;;;;2.63;2.35;;;;;;;17.01;74.57;102819.06;5034913;28;20328;-75
2022/08/09 03:21:22;;;;;;;3.67;2.72;;;;;;;16.99;74.26;102819.13;5035821;28;20037;-75
2022/08/09 03:23:48;;;;;;;2.63;2.42;;;;;;;16.98;74.50;102814.75;5036586;28;20092;-75
2022/08/09 03:26:15;;;;;;;2.53;2.35;;;;;;;16.98;74.28;102827.13;5035996;28;20037;-75
2022/08/09 03:28:42;;;;;;;3.97;2.85;;;;;;;16.96;74.69;102821.88;5035921;28;20171;-75
2022/08/09 03:31:09;;;;;;;4.28;2.70;;;;;;;16.95;74.54;102816.63;5034723;28;20340;-75
2022/08/09 03:33:36;;;;;;;2.80;2.50;;;;;;;16.93;74.42;102815.84;5034043;28;20037;-75
2022/08/09 03:36:02;;;;;;;2.95;2.75;;;;;;;16.93;74.43;102819.34;5036287;28;20033;-75
2022/08/09 03:38:28;;;;;;;2.80;2.53;;;;;;;16.91;74.41;102826.47;5034155;28;20052;-75
2022/08/09 03:40:53;;;;;;;3.13;2.88;;;;;;;16.89;74.21;102830.97;5036259;28;20056;-75
2022/08/09 03:43:19;;;;;;;3.92;2.63;;;;;;;16.87;74.37;102832.78;5035423;28;20301;-75
2022/08/09 03:45:44;;;;;;;3.13;2.90;;;;;;;16.86;74.39;102842.53;5018064;28;20064;-75
2022/08/09 03:48:10;;;;;;;3.25;2.83;;;;;;;16.87;74.63;102840.75;5034652;28;20037;-75
2022/08/09 03:50:36;;;;;;;2.80;2.60;;;;;;;16.85;74.41;102837.28;5034165;28;20137;-75
2022/08/09 03:53:04;;;;;;;3.75;3.00;;;;;;;16.83;74.39;102844.41;5035800;28;20048;-75
2022/08/09 03:55:29;;;;;;;3.33;2.72;;;;;;;16.82;74.17;102847.94;5035184;28;20021;-75
2022/08/09 03:57:56;;;;;;;3.63;2.80;;;;;;;16.81;74.25;102847.06;5034618;28;20358;-75
2022/08/09 04:00:21;;;;;;;7.25;3.47;;;;;;;16.79;74.23;102850.69;5035189;28;20040;-75
2022/08/09 04:02:48;;;;;;;3.33;3.08;;;;;;;16.78;74.31;102848.97;5035860;28;20198;-75
2022/08/09 04:05:13;;;;;;;3.10;2.90;;;;;;;16.77;74.53;102847.22;5034807;28;20255;-75
2022/08/09 04:07:39;;;;;;;3.78;3.25;;;;;;;16.76;74.78;102851.66;5030526;28;20048;-75
2022/08/09 04:10:05;;;;;;;3.65;3.35;;;;;;;16.76;74.66;102856.09;5016816;28;20037;-75
2022/08/09 04:12:46;;;;;;;4.65;3.15;;;;;;;16.75;74.82;102852.56;5012461;28;20046;-75
2022/08/09 04:15:13;;;;;;;3.60;3.30;;;;;;;16.74;74.97;102858.78;5013866;28;20045;-75
2022/08/09 04:17:40;;;;;;;6.35;3.92;;;;;;;16.73;74.78;102859.69;5012755;28;20349;-75
2022/08/09 04:20:07;;;;;;;5.18;4.10;;;;;;;16.73;75.23;102864.13;5014007;28;20248;-75
2022/08/09 04:22:33;;;;;;;4.40;4.00;;;;;;;16.73;75.16;102869.41;5013373;28;20252;-75
2022/08/09 04:24:59;;;;;;;4.22;3.83;;;;;;;16.71;75.34;102864.19;5014439;28;20064;-75
2022/08/09 04:27:24;;;;;;;4.25;3.85;;;;;;;16.70;75.55;102879.19;5013592;28;20068;-75
2022/08/09 04:29:50;;;;;;;4.47;4.00;;;;;;;16.69;75.52;102880.09;5013924;28;20408;-75
2022/08/09 04:32:15;;;;;;;4.35;4.03;;;;;;;16.69;75.91;102885.38;4996196;28;20072;-75
2022/08/09 04:34:41;;;;;;;5.90;3.70;;;;;;;16.69;76.27;102884.53;5012809;28;20352;-75
2022/08/09 04:37:06;;;;;;;4.40;4.00;;;;;;;16.69;76.08;102887.19;5014082;28;20322;-75
2022/08/09 04:39:32;;;;;;;4.05;3.70;;;;;;;16.69;76.40;102892.47;5028742;28;20245;-75
2022/08/09 04:41:57;;;;;;;4.57;4.13;;;;;;;16.69;76.25;102892.47;5013874;28;20029;-75
2022/08/09 04:44:23;;;;;;;3.97;3.67;;;;;;;16.68;76.49;102890.72;5013341;28;20062;-75
2022/08/09 04:46:48;;;;;;;4.35;3.70;;;;;;;16.69;76.32;102897.75;5013151;28;20037;-75
2022/08/09 04:49:13;;;;;;;4.65;3.58;;;;;;;16.68;76.85;102890.72;5017289;28;20041;-75
2022/08/09 04:51:39;;;;;;;4.38;3.72;;;;;;;16.68;76.93;102888.09;5017602;28;20053;-75
2022/08/09 04:54:05;;;;;;;4.05;3.65;;;;;;;16.67;76.82;102892.53;5017237;28;20041;-75
2022/08/09 04:56:30;;;;;;;5.90;4.20;;;;;;;16.67;76.98;102900.44;5017067;28;20060;-75
2022/08/09 04:58:56;;;;;;;4.38;3.95;;;;;;;16.67;77.10;102891.66;5016024;28;20045;-75
2022/08/09 05:01:21;;;;;;;4.47;4.05;;;;;;;16.68;77.25;102896.03;5017400;28;20042;-75
2022/08/09 05:03:47;;;;;;;4.18;3.88;;;;;;;16.66;78.10;102896.09;5017509;28;20233;-75
2022/08/09 05:06:13;;;;;;;6.65;4.38;;;;;;;16.65;78.20;102886.41;5016674;28;20052;-75
2022/08/09 05:08:39;;;;;;;4.75;4.00;;;;;;;16.63;78.53;102888.25;5015755;28;20037;-75
2022/08/09 05:11:05;;;;;;;4.57;4.18;;;;;;;16.63;78.67;102895.34;5017193;28;20045;-75
2022/08/09 05:13:30;;;;;;;6.45;4.53;;;;;;;16.62;78.83;102885.66;5016722;28;20041;-75
2022/08/09 05:15:56;;;;;;;4.60;4.20;;;;;;;16.61;79.09;102890.09;5017380;28;20037;-75
2022/08/09 05:18:21;;;;;;;6.13;4.40;;;;;;;16.61;79.25;102889.25;5015397;28;20310;-75
2022/08/09 05:20:47;;;;;;;6.10;5.53;;;;;;;16.58;80.33;102891.97;5017464;28;20349;-75
2022/08/09 05:23:12;;;;;;;4.95;4.18;;;;;;;16.56;80.24;102894.66;5016694;28;20317;-75
2022/08/09 05:25:38;;;;;;;4.38;4.00;;;;;;;16.56;80.24;102893.81;5016787;28;20053;-75
2022/08/09 05:28:04;;;;;;;5.45;4.20;;;;;;;16.57;80.45;102903.47;5017465;28;20038;-75
2022/08/09 05:30:30;;;;;;;5.30;4.80;;;;;;;16.53;80.82;102892.13;5016522;28;20046;-75
2022/08/09 05:32:55;;;;;;;5.43;4.82;;;;;;;16.48;82.06;102891.41;5015711;28;20084;-75
2022/08/09 05:35:20;;;;;;;4.90;4.40;;;;;;;16.49;81.85;102894.00;5016393;28;20348;-75
2022/08/09 05:37:47;;;;;;;5.38;4.43;;;;;;;16.49;81.58;102901.06;5016899;28;20042;-75
2022/08/09 05:40:13;;;;;;;7.15;4.70;;;;;;;16.48;81.98;102894.94;5016373;28;20030;-75
2022/08/09 05:42:39;;;;;;;6.47;4.90;;;;;;;16.49;81.87;102890.50;5016270;28;20202;-75
2022/08/09 05:45:06;;;;;;;6.80;4.95;;;;;;;16.47;82.12;102890.53;5016471;28;20041;-75
2022/08/09 05:47:31;;;;;;;7.18;4.82;;;;;;;16.45;82.52;102896.81;5016316;28;20363;-75
2022/08/09 05:49:56;;;;;;;6.03;4.90;;;;;;;16.45;82.64;102902.94;5016512;28;20041;-75
2022/08/09 05:52:22;;;;;;;7.05;5.45;;;;;;;16.43;83.11;102906.56;5014610;28;20436;-75
2022/08/09 05:54:48;;;;;;;10.02;5.80;;;;;;;16.41;83.27;102908.38;5016463;28;20049;-75
2022/08/09 05:57:13;;;;;;;5.63;5.05;;;;;;;16.43;83.11;102920.66;5016369;28;20046;-75
2022/08/09 05:59:38;;;;;;;6.60;5.25;;;;;;;16.43;83.18;102915.38;5015183;28;20079;-75
2022/08/09 06:02:04;;;;;;;5.55;5.07;;;;;;;16.46;83.23;102922.31;5016424;28;20345;-75
2022/08/09 06:04:29;;;;;;;5.00;4.60;;;;;;;16.49;83.61;102927.53;5015824;28;20776;-75
2022/08/09 06:06:55;;;;;;;5.28;4.78;;;;;;;16.49;83.38;102925.72;5015094;28;20096;-75
2022/08/09 06:09:20;;;;;;;5.95;5.38;;;;;;;16.51;83.50;102925.69;5015842;28;20237;-75
2022/08/09 06:11:45;;;;;;;6.70;5.03;;;;;;;16.48;83.36;102918.72;5014878;28;20042;-75
2022/08/09 06:14:11;;;;;;;9.18;6.20;;;;;;;16.49;83.51;102916.94;5015762;28;20330;-75
2022/08/09 06:16:37;;;;;;;6.13;5.53;;;;;;;16.50;83.72;102927.47;5016189;28;20042;-75
2022/08/09 06:19:02;;;;;;;7.47;5.40;;;;;;;16.52;83.93;102932.72;5016095;28;20041;-75
2022/08/09 06:21:28;;;;;;;7.60;5.80;;;;;;;16.55;83.44;102931.75;5015627;28;20041;-75
2022/08/09 06:23:54;;;;;;;8.45;5.35;;;;;;;16.56;83.90;102933.47;5015021;28;20049;-75
2022/08/09 06:26:21;;;;;;;10.25;5.82;;;;;;;16.56;83.57;102938.78;5015794;28;20042;-75
2022/08/09 06:28:53;;;;;;;6.90;6.00;;;;;;;16.58;83.46;102934.28;5016018;28;20050;-75
2022/08/09 06:31:19;;;;;;;6.40;5.53;;;;;;;16.60;83.50;102937.75;5014048;28;20034;-75
2022/08/09 06:33:44;;;;;;;7.18;5.50;;;;;;;16.60;83.64;102937.75;5020761;28;20130;-75
2022/08/09 06:36:09;;;;;;;6.35;5.72;;;;;;;16.58;83.80;102935.16;5035087;28;20041;-75
2022/08/09 06:38:35;;;;;;;6.20;5.20;;;;;;;16.62;83.87;102947.34;5025035;28;20071;-75
2022/08/09 06:41:00;;;;;;;5.30;4.80;;;;;;;16.65;83.32;102947.25;5034667;28;20037;-75
2022/08/09 06:43:26;;;;;;;5.68;4.90;;;;;;;16.69;83.43;102943.59;5033316;28;20041;-75
2022/08/09 06:45:51;;;;;;;5.32;4.82;;;;;;;16.73;83.39;102951.44;5033725;28;20041;-75
2022/08/09 06:48:17;;;;;;;9.63;5.28;;;;;;;16.73;83.31;102948.78;5034737;28;20041;-75
2022/08/09 06:50:42;;;;;;;5.95;4.47;;;;;;;16.77;83.00;102953.94;5023983;28;20028;-75
2022/08/09 06:53:08;;;;;;;4.82;4.43;;;;;;;16.79;83.00;102941.53;5034899;28;20109;-75
2022/08/09 06:55:33;;;;;;;6.25;4.53;;;;;;;16.81;82.77;102952.91;5034167;28;20076;-75
2022/08/09 06:58:00;;;;;;;6.97;4.43;;;;;;;16.82;82.23;102956.41;5035276;28;20328;-75
2022/08/09 07:00:26;;;;;;;5.28;4.70;;;;;;;16.83;82.35;102961.69;5034295;28;20033;-75
2022/08/09 07:02:52;;;;;;;5.28;4.38;;;;;;;16.88;82.17;102956.25;5035145;28;20045;-75
2022/08/09 07:05:17;;;;;;;3.85;3.55;;;;;;;16.91;82.00;102960.59;5034507;28;20048;-75
2022/08/09 07:07:43;;;;;;;4.80;4.20;;;;;;;16.91;81.73;102961.44;5030956;28;20064;-75
2022/08/09 07:10:09;;;;;;;6.00;3.65;;;;;;;16.95;81.55;102963.06;5034634;28;20064;-75
2022/08/09 07:12:35;;;;;;;4.50;3.20;;;;;;;16.98;81.47;102965.59;5033030;28;20244;-75
2022/08/09 07:15:00;;;;;;;3.92;3.20;;;;;;;17.00;81.49;102958.47;5035349;28;20029;-75
2022/08/09 07:17:25;;;;;;;3.20;2.85;;;;;;;17.03;80.73;102962.81;5032910;28;20040;-75
2022/08/09 07:19:51;;;;;;;5.25;2.97;;;;;;;17.06;80.31;102962.69;5033186;28;20231;-75
2022/08/09 07:22:17;;;;;;;4.88;2.42;;;;;;;17.11;79.79;102973.13;5049145;28;20060;-75
2022/08/09 07:24:43;;;;;;;5.35;2.55;;;;;;;17.14;78.79;102978.34;5034312;28;20344;-75
2022/08/09 07:27:12;;;;;;;3.45;3.13;;;;;;;17.18;79.13;102964.06;5033173;28;20029;-75
2022/08/09 07:29:38;;;;;;;2.92;2.60;;;;;;;17.22;79.60;102958.59;5032203;28;20309;-75
2022/08/09 07:32:04;;;;;;;2.40;2.20;;;;;;;17.27;79.24;102966.38;5033438;28;20056;-75
2022/08/09 07:34:29;;;;;;;3.15;2.33;;;;;;;17.32;78.81;102963.56;5027579;28;20045;-75
2022/08/09 07:36:55;;;;;;;2.80;2.35;;;;;;;17.33;78.64;102960.88;5036064;28;20037;-75
2022/08/09 07:39:21;;;;;;;5.43;2.22;;;;;;;17.37;78.56;102949.25;5035699;28;20041;-75
2022/08/09 07:41:47;;;;;;;2.33;2.13;;;;;;;17.44;77.64;102950.78;5068027;28;20238;-75
2022/08/09 07:44:12;;;;;;;3.65;2.20;;;;;;;17.50;76.89;102949.69;5035342;28;20041;-75
2022/08/09 07:46:38;;;;;;;3.90;2.33;;;;;;;17.55;76.55;102945.06;5035571;28;20034;-75
2022/08/09 07:49:04;;;;;;;4.28;2.25;;;;;;;17.58;76.28;102936.16;5035559;28;20033;-75
2022/08/09 07:51:30;;;;;;;4.43;2.35;;;;;;;17.63;75.84;102939.50;5034989;28;20044;-75
2022/08/09 07:53:55;;;;;;;3.92;1.88;;;;;;;17.64;75.01;102939.44;5035552;28;20037;-75
2022/08/09 07:56:20;;;;;;;7.10;2.03;;;;;;;17.68;74.87;102937.50;5033808;28;20036;-75
2022/08/09 07:58:46;;;;;;;3.45;1.70;;;;;;;17.72;74.21;102944.44;5034208;28;20105;-75
2022/08/09 08:01:11;;;;;;;3.28;2.17;;;;;;;17.78;74.45;102946.00;5034176;28;20025;-75
2022/08/09 08:03:37;;;;;;;2.83;2.13;;;;;;;17.81;74.53;102937.94;5034259;28;20236;-75
2022/08/09 08:06:03;;;;;;;3.33;1.70;;;;;;;17.85;73.96;102942.22;5034136;28;20106;-75
2022/08/09 08:08:29;;;;;;;1.90;1.60;;;;;;;17.89;73.84;102945.63;5026814;28;20252;-75
2022/08/09 08:10:54;;;;;;;2.38;1.75;;;;;;;17.93;73.19;102947.22;5035335;28;20041;-75
2022/08/09 08:13:20;;;;;;;2.90;1.23;;;;;;;17.97;73.23;102952.38;5034874;28;20064;-75
2022/08/09 08:15:45;;;;;;;2.80;1.27;;;;;;;18.08;72.09;102951.97;5035242;28;20156;-75
2022/08/09 08:18:11;;;;;;;4.80;1.40;;;;;;;18.12;71.77;102952.69;5033689;28;20037;-75
2022/08/09 08:20:37;;;;;;;2.47;1.60;;;;;;;18.14;71.61;102962.31;5035034;28;20041;-75
2022/08/09 08:23:04;;;;;;;2.08;1.50;;;;;;;18.18;71.37;102957.75;5037915;28;20053;-75
2022/08/09 08:25:30;;;;;;;4.47;1.30;;;;;;;18.21;71.41;102963.81;5039017;28;20033;-75
2022/08/09 08:27:55;;;;;;;1.70;1.23;;;;;;;18.23;70.70;102963.75;5039889;28;20122;-75
2022/08/09 08:30:21;;;;;;;1.10;1.00;;;;;;;18.28;70.26;102961.78;5038682;28;20049;-75
2022/08/09 08:32:46;;;;;;;3.50;1.60;;;;;;;18.34;70.03;102960.69;5037902;28;20034;-75
2022/08/09 08:35:12;;;;;;;7.70;1.52;;;;;;;18.34;70.35;102961.53;5021325;28;20037;-75
2022/08/09 08:37:37;;;;;;;2.85;1.60;;;;;;;18.38;70.28;102956.97;5039038;28;20044;-76
2022/08/09 08:40:04;;;;;;;3.88;1.33;;;;;;;18.39;69.99;102958.69;5038300;28;20048;-75
2022/08/09 08:42:30;;;;;;;4.28;1.48;;;;;;;18.40;70.30;102955.13;5037274;28;20128;-75
2022/08/09 08:44:58;;;;;;;3.70;1.20;;;;;;;18.43;69.12;102965.59;5039265;28;20093;-75
2022/08/09 08:47:25;;;;;;;2.28;1.40;;;;;;;18.51;70.23;102962.63;5038688;28;20041;-75
2022/08/09 08:49:52;;;;;;;1.75;1.10;;;;;;;18.54;69.43;102958.06;5039069;28;20048;-75
2022/08/09 08:52:24;;;;;;;2.53;1.27;;;;;;;18.59;68.78;102949.91;5038199;28;20229;-75
2022/08/09 08:54:54;;;;;;;2.88;1.25;;;;;;;18.66;69.17;102954.03;5039202;28;20059;-75
2022/08/09 08:57:20;;;;;;;2.05;1.10;;;;;;;18.72;67.75;102951.16;5038083;28;20108;-75
2022/08/09 08:59:47;;;;;;;1.90;0.98;;;;;;;18.78;66.24;102956.19;5037731;28;20096;-75
2022/08/09 09:02:22;;;;;;;1.23;0.80;;;;;;;18.83;65.12;102961.34;5019452;28;20053;-75
2022/08/09 09:04:50;;;;;;;2.80;1.00;;;;;;;18.87;65.43;102965.59;5038757;28;20017;-75
2022/08/09 09:07:16;;;;;;;1.97;1.07;;;;;;;18.88;65.89;102966.44;5037101;28;20071;-75
2022/08/09 09:09:46;;;;;;;1.50;0.90;;;;;;;18.89;66.27;102960.22;5038754;28;20276;-75
2022/08/09 09:12:14;;;;;;;4.28;0.90;;;;;;;18.95;66.94;102962.59;5038151;28;20037;-75
2022/08/09 09:14:41;;;;;;;1.17;1.02;;;;;;;18.98;66.05;102966.00;5038832;28;20501;-75
2022/08/09 09:17:06;;;;;;;3.20;1.00;;;;;;;19.08;65.76;102970.91;5038434;28;20053;-75
2022/08/09 09:19:32;;;;;;;2.13;1.13;;;;;;;19.12;66.14;102964.56;5038174;28;20115;-75
2022/08/09 09:22:02;;;;;;;2.50;0.85;;;;;;;19.12;65.79;102965.41;5038260;28;20022;-75
2022/08/09 09:24:30;;;;;;;0.60;0.60;;;;;;;19.21;63.76;102964.16;5037692;28;20025;-75
2022/08/09 09:26:57;;;;;;;1.00;0.70;;;;;;;19.24;63.60;102973.78;5038589;28;20252;-75
2022/08/09 09:29:35;;;;;;;1.60;0.80;;;;;;;19.28;63.47;102968.28;5037842;28;20333;-75
2022/08/09 09:32:01;;;;;;;1.75;0.80;;;;;;;19.34;63.23;102970.66;5025310;28;20053;-75
2022/08/09 09:34:27;;;;;;;2.63;0.70;;;;;;;19.35;62.12;102966.19;5023969;28;20104;-75
2022/08/09 09:36:53;;;;;;;2.42;0.80;;;;;;;19.35;61.71;102969.69;5036977;28;20041;-75
2022/08/09 09:39:21;;;;;;;1.63;0.95;;;;;;;19.38;62.81;102964.25;5037548;28;20049;-75
2022/08/09 09:41:47;;;;;;;2.85;0.60;;;;;;;19.44;63.19;102962.28;5038304;28;20029;-75
2022/08/09 09:44:13;;;;;;;2.72;0.90;;;;;;;19.50;64.14;102968.19;5037815;28;20364;-75
2022/08/09 09:46:40;;;;;;;1.13;0.85;;;;;;;19.54;64.43;102964.44;5037078;28;20145;-75
2022/08/09 09:49:09;;;;;;;1.05;0.70;;;;;;;19.58;63.87;102972.28;5038374;28;20384;-75
2022/08/09 09:51:36;;;;;;;0.57;0.50;;;;;;;19.63;62.45;102967.59;5038629;28;20040;-75
2022/08/09 09:54:13;;;;;;;1.83;0.60;;;;;;;19.62;61.71;102972.06;5038398;28;20044;-75
2022/08/09 09:56:39;;;;;;;1.58;0.82;;;;;;;19.63;60.81;102980.91;5038570;28;20357;-77
2022/08/09 09:59:06;;;;;;;0.77;0.60;;;;;;;19.65;61.18;102971.09;5036838;28;20052;-76
2022/08/09 10:01:31;;;;;;;1.42;0.70;;;;;;;19.72;61.37;102972.53;5036505;28;20324;-75
2022/08/09 10:03:58;;;;;;;1.67;0.65;;;;;;;19.78;60.11;102972.28;5038044;28;20037;-75
2022/08/09 10:06:25;;;;;;;3.30;0.60;;;;;;;19.81;58.43;102963.28;5037424;28;20312;-75
2022/08/09 10:08:58;;;;;;;0.50;0.50;;;;;;;19.86;58.11;102967.44;5037468;28;20241;-75
2022/08/09 10:11:26;;;;;;;1.77;0.75;;;;;;;19.85;59.54;102959.56;5035836;28;20030;-75
2022/08/09 10:13:52;;;;;;;3.30;0.82;;;;;;;19.87;59.82;102955.03;5036544;28;20462;-75
2022/08/09 10:16:35;;;;;;;0.85;0.60;;;;;;;19.89;57.79;102954.03;5035867;28;20058;-74
2022/08/09 10:19:04;;;;;;;0.65;0.55;;;;;;;20.02;56.64;102954.31;5024290;28;20025;-75
2022/08/09 10:21:30;;;;;;;1.05;0.55;;;;;;;20.03;56.62;102958.69;5037008;28;20501;-75
2022/08/09 10:23:59;;;;;;;4.00;0.70;;;;;;;20.06;57.09;102947.91;5037290;28;20026;-75
2022/08/09 10:26:25;;;;;;;1.38;0.60;;;;;;;20.09;57.95;102942.44;5035519;28;20041;-75
2022/08/09 10:28:52;;;;;;;0.65;0.40;;;;;;;20.12;57.39;102944.97;5036123;28;20268;-75
2022/08/09 10:31:18;;;;;;;0.95;0.75;;;;;;;20.10;56.40;102941.53;5036637;28;20048;-75
2022/08/09 10:33:44;;;;;;;2.63;0.40;;;;;;;20.10;54.78;102949.50;5028934;28;20033;-75
2022/08/09 10:36:11;;;;;;;0.40;0.35;;;;;;;20.10;55.45;102949.50;5031698;28;20034;-76
2022/08/09 10:38:38;;;;;;;2.10;0.50;;;;;;;20.11;55.99;102939.72;5036636;28;20041;-75
2022/08/09 10:41:04;;;;;;;1.13;0.40;;;;;;;20.14;55.88;102950.22;5035692;28;20137;-76
2022/08/09 10:43:30;;;;;;;0.98;0.30;;;;;;;20.12;55.58;102944.97;5036542;28;20029;-76
2022/08/09 10:46:10;;;;;;;0.80;0.38;;;;;;;20.16;55.81;102947.50;5036361;28;20064;-75
2022/08/09 10:48:44;;;;;;;3.80;0.68;;;;;;;20.18;56.71;102956.25;5036812;28;20352;-75
2022/08/09 10:51:32;;;;;;;0.82;0.50;;;;;;;20.24;56.79;102950.63;5035339;28;20040;-75
2022/08/09 10:54:06;;;;;;;0.30;0.30;;;;;;;20.25;56.43;102949.69;4998123;28;20131;-76
2022/08/09 10:56:33;;;;;;;0.50;0.43;;;;;;;20.28;56.13;102946.88;5035251;28;20057;-75
2022/08/09 10:59:20;;;;;;;0.47;0.43;;;;;;;20.36;56.23;102947.38;5036573;28;20037;-75
2022/08/09 11:01:46;;;;;;;0.85;0.57;;;;;;;20.39;55.76;102947.22;5037052;28;20328;-75
2022/08/09 11:04:19;;;;;;;0.50;0.50;;;;;;;20.43;55.53;102953.25;5035121;28;20074;-75
2022/08/09 11:06:47;;;;;;;0.75;0.60;;;;;;;20.47;55.77;102938.88;5036817;28;20206;-75
2022/08/09 11:09:16;;;;;;;1.67;0.63;;;;;;;20.49;55.81;102939.66;5036197;28;20103;-75
2022/08/09 11:11:54;;;;;;;0.90;0.52;;;;;;;20.51;54.83;102938.63;5035135;28;20037;-75
2022/08/09 11:14:56;;;;;;;0.60;0.50;;;;;;;20.59;55.66;102940.03;5023690;28;20075;-75
2022/08/09 11:17:21;;;;;;;0.43;0.43;;;;;;;20.61;55.63;102938.19;5033226;28;20547;-75
2022/08/09 11:20:06;;;;;;;2.45;0.70;;;;;;;20.66;54.85;102928.19;5028721;28;20093;-75
2022/08/09 11:22:43;;;;;;;2.92;0.70;;;;;;;20.75;55.15;102930.38;5033728;28;20040;-75
2022/08/09 11:25:27;;;;;;;0.77;0.50;;;;;;;20.76;54.69;102931.25;5033197;28;20143;-75
2022/08/09 11:27:54;;;;;;;0.65;0.60;;;;;;;20.75;55.37;102932.19;5028542;28;20334;-75
2022/08/09 11:30:22;;;;;;;1.52;0.70;;;;;;;20.73;56.04;102928.75;5033807;28;20057;-75
2022/08/09 11:32:50;;;;;;;;;;;;;;;20.80;55.23;102932.81;5034806;28;20237;-75
2022/08/09 11:35:31;;;;;;;0.50;0.50;;;;;;;20.84;55.65;102932.56;5055156;28;19905;-75